sensor_id;sensor_type;location;lat;lon;timestamp;pressure;altitude;pressure_sealevel;temperature;humidity
10646;BME280;5371;49.782;9.932;2023-03-04T00:01:52;100261.47;;;-0.17;100.00
10646;BME280;5371;49.782;9.932;2023-03-04T00:04:19;100263.06;;;0.04;100.00
10646;BME280;5371;49.782;9.932;2023-03-04T00:06:46;100261.16;;;0.29;100.00
10646;BME280;5371;49.782;9.932;2023-03-04T00:09:14;100270.81;;;-0.04;100.00
10646;BME280;5371;49.782;9.932;2023-03-04T00:11:41;100268.06;;;0.22;100.00
10646;BME280;5371;49.782;9.932;2023-03-04T00:14:08;100262.94;;;0.19;100.00
10646;BME280;5371;49.782;9.932;2023-03-04T00:16:35;100272.25;;;0.35;100.00
10646;BME280;5371;49.782;9.932;2023-03-04T00:19:02;100269.81;;;0.17;100.00
10646;BME280;5371;49.782;9.932;2023-03-04T00:21:29;100267.03;;;0.43;100.00
10646;BME280;5371;49.782;9.932;2023-03-04T00:23:56;100270.47;;;0.44;100.00
10646;BME280;5371;49.782;9.932;2023-03-04T00:26:24;100261.81;;;0.51;100.00
10646;BME280;5371;49.782;9.932;2023-03-04T00:28:51;100265.34;;;0.37;100.00
10646;BME280;5371;49.782;9.932;2023-03-04T00:31:19;100264.69;;;0.17;100.00
10646;BME280;5371;49.782;9.932;2023-03-04T00:33:46;100267.03;;;0.45;100.00
10646;BME280;5371;49.782;9.932;2023-03-04T00:36:13;100268.88;;;0.27;100.00
10646;BME280;5371;49.782;9.932;2023-03-04T00:38:40;100268.06;;;0.24;100.00
10646;BME280;5371;49.782;9.932;2023-03-04T00:41:07;100269.66;;;0.37;100.00
10646;BME280;5371;49.782;9.932;2023-03-04T00:43:36;100268.97;;;0.17;100.00
10646;BME280;5371;49.782;9.932;2023-03-04T00:46:03;100275.63;;;0.41;100.00
10646;BME280;5371;49.782;9.932;2023-03-04T00:48:30;100275.63;;;0.41;100.00
10646;BME280;5371;49.782;9.932;2023-03-04T00:50:57;100267.00;;;0.48;100.00
10646;BME280;5371;49.782;9.932;2023-03-04T00:53:24;100265.31;;;0.44;100.00
10646;BME280;5371;49.782;9.932;2023-03-04T00:55:51;100270.56;;;0.28;100.00
10646;BME280;5371;49.782;9.932;2023-03-04T00:58:18;100263.66;;;0.36;100.00
10646;BME280;5371;49.782;9.932;2023-03-04T01:00:46;100262.19;;;0.08;100.00
10646;BME280;5371;49.782;9.932;2023-03-04T01:03:13;100261.97;;;0.34;100.00
10646;BME280;5371;49.782;9.932;2023-03-04T01:05:40;100261.19;;;0.26;100.00
10646;BME280;5371;49.782;9.932;2023-03-04T01:08:07;100261.97;;;0.34;100.00
10646;BME280;5371;49.782;9.932;2023-03-04T01:10:34;100258.63;;;0.23;100.00
10646;BME280;5371;49.782;9.932;2023-03-04T01:13:01;100264.63;;;0.23;100.00
10646;BME280;5371;49.782;9.932;2023-03-04T01:15:28;100261.28;;;0.11;100.00
10646;BME280;5371;49.782;9.932;2023-03-04T01:17:57;100272.47;;;0.08;100.00
10646;BME280;5371;49.782;9.932;2023-03-04T01:20:24;100270.75;;;0.07;100.00
10646;BME280;5371;49.782;9.932;2023-03-04T01:22:51;100274.22;;;0.00;100.00
10646;BME280;5371;49.782;9.932;2023-03-04T01:25:18;100275.91;;;0.01;100.00
10646;BME280;5371;49.782;9.932;2023-03-04T01:27:45;100260.53;;;-0.02;100.00
10646;BME280;5371;49.782;9.932;2023-03-04T01:30:12;100266.53;;;-0.03;100.00
10646;BME280;5371;49.782;9.932;2023-03-04T01:32:42;100265.00;;;-0.31;100.00
10646;BME280;5371;49.782;9.932;2023-03-04T01:35:11;100265.69;;;-0.08;100.00
10646;BME280;5371;49.782;9.932;2023-03-04T01:37:38;100260.56;;;-0.07;100.00
10646;BME280;5371;49.782;9.932;2023-03-04T01:40:07;100267.34;;;0.04;100.00
10646;BME280;5371;49.782;9.932;2023-03-04T01:42:37;100261.34;;;0.06;100.00
10646;BME280;5371;49.782;9.932;2023-03-04T01:45:06;100251.19;;;-0.15;100.00
10646;BME280;5371;49.782;9.932;2023-03-04T01:47:34;100255.44;;;-0.11;100.00
10646;BME280;5371;49.782;9.932;2023-03-04T01:50:05;100253.75;;;-0.12;100.00
10646;BME280;5371;49.782;9.932;2023-03-04T01:52:38;100256.38;;;-0.23;100.00
10646;BME280;5371;49.782;9.932;2023-03-04T01:55:16;100248.09;;;-0.78;100.00
10646;BME280;5371;49.782;9.932;2023-03-04T01:57:44;100242.69;;;-0.23;100.00
10646;BME280;5371;49.782;9.932;2023-03-04T02:00:21;100243.41;;;-0.06;100.00
10646;BME280;5371;49.782;9.932;2023-03-04T02:02:51;100245.06;;;0.07;100.00
10646;BME280;5371;49.782;9.932;2023-03-04T02:05:20;100238.28;;;-0.06;100.00
10646;BME280;5371;49.782;9.932;2023-03-04T02:07:50;100235.56;;;0.15;100.00
10646;BME280;5371;49.782;9.932;2023-03-04T02:10:18;100230.34;;;0.21;100.00
10646;BME280;5371;49.782;9.932;2023-03-04T02:12:45;100235.69;;;0.00;100.00
10646;BME280;5371;49.782;9.932;2023-03-04T02:15:12;100226.03;;;0.26;100.00
10646;BME280;5371;49.782;9.932;2023-03-04T02:17:39;100222.47;;;0.40;100.00
10646;BME280;5371;49.782;9.932;2023-03-04T02:20:17;100219.84;;;0.46;100.00
10646;BME280;5371;49.782;9.932;2023-03-04T02:22:53;100221.91;;;0.07;100.00
10646;BME280;5371;49.782;9.932;2023-03-04T02:25:26;100223.44;;;0.29;100.00
10646;BME280;5371;49.782;9.932;2023-03-04T02:27:56;100208.69;;;-0.71;100.00
10646;BME280;5371;49.782;9.932;2023-03-04T02:30:23;100209.38;;;-0.37;100.00
10646;BME280;5371;49.782;9.932;2023-03-04T02:32:51;100213.69;;;-0.42;100.00
10646;BME280;5371;49.782;9.932;2023-03-04T02:35:19;100209.72;;;0.27;100.00
10646;BME280;5371;49.782;9.932;2023-03-04T02:37:46;100201.91;;;0.40;100.00
10646;BME280;5371;49.782;9.932;2023-03-04T02:40:16;100204.31;;;0.56;100.00
10646;BME280;5371;49.782;9.932;2023-03-04T02:42:44;100206.16;;;0.45;100.00
10646;BME280;5371;49.782;9.932;2023-03-04T02:45:45;100198.22;;;0.65;100.00
10646;BME280;5371;49.782;9.932;2023-03-04T02:48:14;100211.09;;;0.65;100.00
10646;BME280;5371;49.782;9.932;2023-03-04T02:50:44;100202.66;;;0.52;100.00
10646;BME280;5371;49.782;9.932;2023-03-04T02:53:12;100204.13;;;0.76;100.00
10646;BME280;5371;49.782;9.932;2023-03-04T02:55:40;100208.91;;;0.25;100.00
10646;BME280;5371;49.782;9.932;2023-03-04T02:58:09;100204.22;;;0.65;100.00
10646;BME280;5371;49.782;9.932;2023-03-04T03:00:38;100193.06;;;0.68;100.00
10646;BME280;5371;49.782;9.932;2023-03-04T03:03:07;100204.94;;;0.81;100.00
10646;BME280;5371;49.782;9.932;2023-03-04T03:05:35;100196.31;;;0.82;100.00
10646;BME280;5371;49.782;9.932;2023-03-04T03:08:04;100199.72;;;0.87;100.00
10646;BME280;5371;49.782;9.932;2023-03-04T03:10:31;100191.16;;;0.82;100.00
10646;BME280;5371;49.782;9.932;2023-03-04T03:12:58;100194.44;;;0.99;100.00
10646;BME280;5371;49.782;9.932;2023-03-04T03:15:26;100195.44;;;0.85;100.00
10646;BME280;5371;49.782;9.932;2023-03-04T03:17:55;100190.75;;;0.41;100.00
10646;BME280;5371;49.782;9.932;2023-03-04T03:20:23;100183.44;;;0.85;100.00
10646;BME280;5371;49.782;9.932;2023-03-04T03:22:50;100179.09;;;0.90;100.00
10646;BME280;5371;49.782;9.932;2023-03-04T03:25:17;100187.56;;;0.98;100.00
10646;BME280;5371;49.782;9.932;2023-03-04T03:27:44;100190.19;;;0.95;100.00
10646;BME280;5371;49.782;9.932;2023-03-04T03:30:14;100188.47;;;0.94;100.00
10646;BME280;5371;49.782;9.932;2023-03-04T03:32:41;100191.72;;;0.30;100.00
10646;BME280;5371;49.782;9.932;2023-03-04T03:35:10;100193.31;;;0.44;100.00
10646;BME280;5371;49.782;9.932;2023-03-04T03:37:39;100188.66;;;0.79;100.00
10646;BME280;5371;49.782;9.932;2023-03-04T03:40:07;100191.16;;;0.84;100.00
10646;BME280;5371;49.782;9.932;2023-03-04T03:42:34;100184.19;;;0.93;100.00
10646;BME280;5371;49.782;9.932;2023-03-04T03:45:04;100177.22;;;1.01;100.00
10646;BME280;5371;49.782;9.932;2023-03-04T03:47:32;100183.06;;;1.16;100.00
10646;BME280;5371;49.782;9.932;2023-03-04T03:49:58;100181.56;;;0.99;100.00
10646;BME280;5371;49.782;9.932;2023-03-04T03:52:27;100182.53;;;0.89;100.00
10646;BME280;5371;49.782;9.932;2023-03-04T03:54:54;100179.78;;;1.03;100.00
10646;BME280;5371;49.782;9.932;2023-03-04T03:57:21;100176.09;;;1.22;100.00
10646;BME280;5371;49.782;9.932;2023-03-04T03:59:49;100190.56;;;1.34;100.00
10646;BME280;5371;49.782;9.932;2023-03-04T04:02:16;100180.09;;;0.79;100.00
10646;BME280;5371;49.782;9.932;2023-03-04T04:04:43;100182.13;;;1.20;100.00
10646;BME280;5371;49.782;9.932;2023-03-04T04:07:10;100187.13;;;1.32;100.00
10646;BME280;5371;49.782;9.932;2023-03-04T04:09:39;100199.03;;;1.42;100.00
10646;BME280;5371;49.782;9.932;2023-03-04T04:12:06;100194.66;;;1.47;100.00
10646;BME280;5371;49.782;9.932;2023-03-04T04:14:33;100191.50;;;1.27;100.00
10646;BME280;5371;49.782;9.932;2023-03-04T04:17:00;100202.50;;;1.39;100.00
10646;BME280;5371;49.782;9.932;2023-03-04T04:19:27;100191.16;;;0.82;100.00
10646;BME280;5371;49.782;9.932;2023-03-04T04:21:54;100196.00;;;1.09;100.00
10646;BME280;5371;49.782;9.932;2023-03-04T04:24:22;100188.09;;;1.25;100.00
10646;BME280;5371;49.782;9.932;2023-03-04T04:26:50;100186.59;;;1.08;100.00
10646;BME280;5371;49.782;9.932;2023-03-04T04:29:17;100177.28;;;0.97;100.00
10646;BME280;5371;49.782;9.932;2023-03-04T04:31:44;100188.88;;;1.30;100.00
10646;BME280;5371;49.782;9.932;2023-03-04T04:34:11;100181.22;;;1.27;100.00
10646;BME280;5371;49.782;9.932;2023-03-04T04:36:38;100179.13;;;0.87;100.00
10646;BME280;5371;49.782;9.932;2023-03-04T04:39:05;100174.16;;;0.72;100.00
10646;BME280;5371;49.782;9.932;2023-03-04T04:41:38;100179.25;;;0.75;100.00
10646;BME280;5371;49.782;9.932;2023-03-04T04:44:08;100177.91;;;0.41;100.00
10646;BME280;5371;49.782;9.932;2023-03-04T04:46:35;100176.38;;;0.18;100.00
10646;BME280;5371;49.782;9.932;2023-03-04T04:49:02;100183.06;;;0.37;100.00
10646;BME280;5371;49.782;9.932;2023-03-04T04:51:29;100175.34;;;0.41;100.00
10646;BME280;5371;49.782;9.932;2023-03-04T04:53:57;100174.50;;;0.38;100.00
10646;BME280;5371;49.782;9.932;2023-03-04T04:56:25;100177.97;;;0.34;100.00
10646;BME280;5371;49.782;9.932;2023-03-04T04:58:53;100172.44;;;0.71;100.00
10646;BME280;5371;49.782;9.932;2023-03-04T05:01:24;100166.69;;;0.46;100.00
10646;BME280;5371;49.782;9.932;2023-03-04T05:03:51;100168.69;;;0.99;100.00
10646;BME280;5371;49.782;9.932;2023-03-04T05:06:21;100167.41;;;1.29;100.00
10646;BME280;5371;49.782;9.932;2023-03-04T05:08:48;100174.91;;;1.46;100.00
10646;BME280;5371;49.782;9.932;2023-03-04T05:11:15;100170.66;;;1.45;100.00
10646;BME280;5371;49.782;9.932;2023-03-04T05:13:44;100183.53;;;1.45;100.00
10646;BME280;5371;49.782;9.932;2023-03-04T05:16:11;100179.28;;;1.41;100.00
10646;BME280;5371;49.782;9.932;2023-03-04T05:18:39;100180.03;;;1.49;100.00
10646;BME280;5371;49.782;9.932;2023-03-04T05:21:06;100184.13;;;1.64;100.00
10646;BME280;5371;49.782;9.932;2023-03-04T05:23:35;100187.41;;;1.73;100.00
10646;BME280;5371;49.782;9.932;2023-03-04T05:26:04;100182.28;;;1.72;100.00
10646;BME280;5371;49.782;9.932;2023-03-04T05:28:32;100173.50;;;1.83;100.00
10646;BME280;5371;49.782;9.932;2023-03-04T05:30:59;100178.13;;;1.63;100.00
10646;BME280;5371;49.782;9.932;2023-03-04T05:33:27;100182.03;;;1.87;100.00
10646;BME280;5371;49.782;9.932;2023-03-04T05:35:56;100176.34;;;1.04;100.00
10646;BME280;5371;49.782;9.932;2023-03-04T05:38:23;100181.34;;;1.16;100.00
10646;BME280;5371;49.782;9.932;2023-03-04T05:40:55;100182.59;;;1.49;100.00
10646;BME280;5371;49.782;9.932;2023-03-04T05:43:23;100187.03;;;1.41;100.00
10646;BME280;5371;49.782;9.932;2023-03-04T05:45:50;100183.19;;;1.69;100.00
10646;BME280;5371;49.782;9.932;2023-03-04T05:48:17;100182.72;;;1.41;100.00
10646;BME280;5371;49.782;9.932;2023-03-04T05:50:44;100187.50;;;1.67;100.00
10646;BME280;5371;49.782;9.932;2023-03-04T05:53:13;100194.34;;;1.70;100.00
10646;BME280;5371;49.782;9.932;2023-03-04T05:55:40;100189.97;;;1.73;100.00
10646;BME280;5371;49.782;9.932;2023-03-04T05:58:11;100194.25;;;1.76;100.00
10646;BME280;5371;49.782;9.932;2023-03-04T06:00:38;100193.25;;;1.83;100.00
10646;BME280;5371;49.782;9.932;2023-03-04T06:03:05;100195.06;;;1.79;100.00
10646;BME280;5371;49.782;9.932;2023-03-04T06:05:32;100198.88;;;1.54;100.00
10646;BME280;5371;49.782;9.932;2023-03-04T06:07:59;100197.22;;;1.48;100.00
10646;BME280;5371;49.782;9.932;2023-03-04T06:10:27;100208.81;;;1.78;100.00
10646;BME280;5371;49.782;9.932;2023-03-04T06:12:55;100209.97;;;1.56;100.00
10646;BME280;5371;49.782;9.932;2023-03-04T06:15:21;100211.63;;;1.62;100.00
10646;BME280;5371;49.782;9.932;2023-03-04T06:17:48;100215.72;;;1.76;100.00
10646;BME280;5371;49.782;9.932;2023-03-04T06:20:16;100215.06;;;1.62;100.00
10646;BME280;5371;49.782;9.932;2023-03-04T06:22:42;100214.19;;;1.63;100.00
10646;BME280;5371;49.782;9.932;2023-03-04T06:25:09;100213.16;;;1.73;100.00
10646;BME280;5371;49.782;9.932;2023-03-04T06:27:38;100212.47;;;1.64;100.00
10646;BME280;5371;49.782;9.932;2023-03-04T06:30:06;100213.41;;;1.58;100.00
10646;BME280;5371;49.782;9.932;2023-03-04T06:32:36;100218.59;;;1.55;100.00
10646;BME280;5371;49.782;9.932;2023-03-04T06:35:03;100215.97;;;1.58;100.00
10646;BME280;5371;49.782;9.932;2023-03-04T06:37:30;100218.69;;;1.46;100.00
10646;BME280;5371;49.782;9.932;2023-03-04T06:39:57;100216.81;;;1.59;100.00
10646;BME280;5371;49.782;9.932;2023-03-04T06:42:25;100220.16;;;1.65;100.00
10646;BME280;5371;49.782;9.932;2023-03-04T06:44:53;100226.00;;;1.79;100.00
10646;BME280;5371;49.782;9.932;2023-03-04T06:47:20;100224.00;;;1.97;100.00
10646;BME280;5371;49.782;9.932;2023-03-04T06:49:47;100224.03;;;1.95;100.00
10646;BME280;5371;49.782;9.932;2023-03-04T06:52:14;100227.69;;;1.80;100.00
10646;BME280;5371;49.782;9.932;2023-03-04T06:54:41;100235.13;;;2.00;100.00
10646;BME280;5371;49.782;9.932;2023-03-04T06:57:08;100230.16;;;1.88;100.00
10646;BME280;5371;49.782;9.932;2023-03-04T06:59:35;100231.41;;;1.61;100.00
10646;BME280;5371;49.782;9.932;2023-03-04T07:02:03;100238.88;;;1.78;100.00
10646;BME280;5371;49.782;9.932;2023-03-04T07:04:30;100235.47;;;1.76;100.00
10646;BME280;5371;49.782;9.932;2023-03-04T07:06:57;100232.78;;;1.83;100.00
10646;BME280;5371;49.782;9.932;2023-03-04T07:09:24;100238.81;;;1.82;100.00
10646;BME280;5371;49.782;9.932;2023-03-04T07:11:51;100239.25;;;1.52;100.00
10646;BME280;5371;49.782;9.932;2023-03-04T07:14:18;100242.41;;;1.72;100.00
10646;BME280;5371;49.782;9.932;2023-03-04T07:16:46;100243.16;;;1.80;100.00
10646;BME280;5371;49.782;9.932;2023-03-04T07:19:14;100242.75;;;2.08;100.00
10646;BME280;5371;49.782;9.932;2023-03-04T07:21:41;100248.97;;;1.93;100.00
10646;BME280;5371;49.782;9.932;2023-03-04T07:24:08;100250.25;;;2.21;100.00
10646;BME280;5371;49.782;9.932;2023-03-04T07:26:35;100251.69;;;1.82;100.00
10646;BME280;5371;49.782;9.932;2023-03-04T07:29:03;100254.69;;;2.13;100.00
10646;BME280;5371;49.782;9.932;2023-03-04T07:31:31;100257.81;;;2.32;100.00
10646;BME280;5371;49.782;9.932;2023-03-04T07:33:59;100256.97;;;2.32;100.00
10646;BME280;5371;49.782;9.932;2023-03-04T07:36:29;100252.59;;;2.37;100.00
10646;BME280;5371;49.782;9.932;2023-03-04T07:38:56;100254.94;;;2.50;100.00
10646;BME280;5371;49.782;9.932;2023-03-04T07:41:24;100257.47;;;2.55;100.00
10646;BME280;5371;49.782;9.932;2023-03-04T07:43:52;100256.16;;;2.28;100.00
10646;BME280;5371;49.782;9.932;2023-03-04T07:46:19;100258.56;;;1.83;100.00
10646;BME280;5371;49.782;9.932;2023-03-04T07:48:46;100258.06;;;2.17;100.00
10646;BME280;5371;49.782;9.932;2023-03-04T07:51:14;100255.34;;;2.28;100.00
10646;BME280;5371;49.782;9.932;2023-03-04T07:53:45;100262.03;;;2.38;100.00
10646;BME280;5371;49.782;9.932;2023-03-04T07:56:14;100261.09;;;2.42;100.00
10646;BME280;5371;49.782;9.932;2023-03-04T07:58:42;100268.97;;;2.34;100.00
10646;BME280;5371;49.782;9.932;2023-03-04T08:01:10;100266.59;;;2.20;100.00
10646;BME280;5371;49.782;9.932;2023-03-04T08:03:38;100262.38;;;2.16;100.00
10646;BME280;5371;49.782;9.932;2023-03-04T08:06:06;100267.44;;;2.22;100.00
10646;BME280;5371;49.782;9.932;2023-03-04T08:08:34;100268.44;;;2.14;100.00
10646;BME280;5371;49.782;9.932;2023-03-04T08:11:05;100265.66;;;2.28;100.00
10646;BME280;5371;49.782;9.932;2023-03-04T08:13:33;100259.34;;;2.45;100.00
10646;BME280;5371;49.782;9.932;2023-03-04T08:16:00;100257.72;;;2.38;100.00
10646;BME280;5371;49.782;9.932;2023-03-04T08:18:27;100258.91;;;2.70;100.00
10646;BME280;5371;49.782;9.932;2023-03-04T08:20:54;100262.31;;;2.72;100.00
10646;BME280;5371;49.782;9.932;2023-03-04T08:23:22;100269.41;;;2.59;100.00
10646;BME280;5371;49.782;9.932;2023-03-04T08:25:49;100263.19;;;2.71;100.00
10646;BME280;5371;49.782;9.932;2023-03-04T08:28:17;100263.09;;;2.77;100.00
10646;BME280;5371;49.782;9.932;2023-03-04T08:30:51;100260.47;;;2.78;100.00
10646;BME280;5371;49.782;9.932;2023-03-04T08:33:18;100271.63;;;2.80;100.00
10646;BME280;5371;49.782;9.932;2023-03-04T08:35:46;100266.31;;;2.89;100.00
10646;BME280;5371;49.782;9.932;2023-03-04T08:38:13;100275.69;;;2.93;100.00
10646;BME280;5371;49.782;9.932;2023-03-04T08:40:40;100267.59;;;3.12;100.00
10646;BME280;5371;49.782;9.932;2023-03-04T08:43:07;100275.75;;;2.90;100.00
10646;BME280;5371;49.782;9.932;2023-03-04T08:45:36;100270.13;;;3.15;100.00
10646;BME280;5371;49.782;9.932;2023-03-04T08:48:03;100268.19;;;3.26;100.00
10646;BME280;5371;49.782;9.932;2023-03-04T08:50:30;100279.28;;;3.29;100.00
10646;BME280;5371;49.782;9.932;2023-03-04T08:52:58;100273.53;;;3.17;100.00
10646;BME280;5371;49.782;9.932;2023-03-04T08:55:24;100279.94;;;2.96;100.00
10646;BME280;5371;49.782;9.932;2023-03-04T08:57:54;100278.50;;;2.81;100.00
10646;BME280;5371;49.782;9.932;2023-03-04T09:00:22;100272.84;;;3.09;100.00
10646;BME280;5371;49.782;9.932;2023-03-04T09:02:50;100272.41;;;3.28;100.00
10646;BME280;5371;49.782;9.932;2023-03-04T09:05:17;100272.34;;;3.33;100.00
10646;BME280;5371;49.782;9.932;2023-03-04T09:07:44;100274.09;;;3.31;100.00
10646;BME280;5371;49.782;9.932;2023-03-04T09:10:11;100266.31;;;3.32;100.00
10646;BME280;5371;49.782;9.932;2023-03-04T09:12:39;100263.59;;;3.38;100.00
10646;BME280;5371;49.782;9.932;2023-03-04T09:15:07;100261.88;;;3.39;100.00
10646;BME280;5371;49.782;9.932;2023-03-04T09:17:34;100262.53;;;3.49;99.81
10646;BME280;5371;49.782;9.932;2023-03-04T09:20:03;100264.19;;;3.53;99.73
10646;BME280;5371;49.782;9.932;2023-03-04T09:22:33;100262.72;;;3.39;100.00
10646;BME280;5371;49.782;9.932;2023-03-04T09:25:00;100266.59;;;3.62;99.52
10646;BME280;5371;49.782;9.932;2023-03-04T09:27:27;100264.50;;;3.78;97.21
10646;BME280;5371;49.782;9.932;2023-03-04T09:29:54;100261.78;;;3.84;97.34
10646;BME280;5371;49.782;9.932;2023-03-04T09:32:21;100259.72;;;3.59;99.26
10646;BME280;5371;49.782;9.932;2023-03-04T09:34:48;100256.53;;;3.47;98.69
10646;BME280;5371;49.782;9.932;2023-03-04T09:37:16;100264.44;;;2.97;100.00
10646;BME280;5371;49.782;9.932;2023-03-04T09:39:46;100263.19;;;3.58;99.64
10646;BME280;5371;49.782;9.932;2023-03-04T09:42:23;100255.06;;;3.75;98.19
10646;BME280;5371;49.782;9.932;2023-03-04T09:44:52;100254.75;;;3.90;97.15
10646;BME280;5371;49.782;9.932;2023-03-04T09:47:21;100260.13;;;3.81;97.57
10646;BME280;5371;49.782;9.932;2023-03-04T09:49:54;100257.47;;;3.84;97.05
10646;BME280;5371;49.782;9.932;2023-03-04T09:52:35;100258.75;;;4.03;95.38
10646;BME280;5371;49.782;9.932;2023-03-04T09:55:09;100260.88;;;3.86;96.67
10646;BME280;5371;49.782;9.932;2023-03-04T09:57:52;100255.06;;;3.75;98.83
10646;BME280;5371;49.782;9.932;2023-03-04T10:00:21;100265.41;;;3.75;98.81
10646;BME280;5371;49.782;9.932;2023-03-04T10:03:05;100270.66;;;2.86;100.00
10646;BME280;5371;49.782;9.932;2023-03-04T10:05:39;100274.84;;;2.91;100.00
10646;BME280;5371;49.782;9.932;2023-03-04T10:08:23;100265.94;;;3.09;100.00
10646;BME280;5371;49.782;9.932;2023-03-04T10:10:53;100263.22;;;3.15;100.00
10646;BME280;5371;49.782;9.932;2023-03-04T10:13:26;100258.84;;;3.62;100.00
10646;BME280;5371;49.782;9.932;2023-03-04T10:15:58;100261.19;;;3.72;100.00
10646;BME280;5371;49.782;9.932;2023-03-04T10:18:30;100252.31;;;3.44;100.00
10646;BME280;5371;49.782;9.932;2023-03-04T10:21:01;100260.81;;;2.58;100.00
10646;BME280;5371;49.782;9.932;2023-03-04T10:23:30;100256.56;;;3.02;100.00
10646;BME280;5371;49.782;9.932;2023-03-04T10:26:01;100248.97;;;2.96;100.00
10646;BME280;5371;49.782;9.932;2023-03-04T10:28:36;100253.84;;;3.10;100.00
10646;BME280;5371;49.782;9.932;2023-03-04T10:31:10;100237.28;;;3.61;100.00
10646;BME280;5371;49.782;9.932;2023-03-04T10:33:39;100249.16;;;2.85;100.00
10646;BME280;5371;49.782;9.932;2023-03-04T10:36:21;100249.38;;;3.61;100.00
10646;BME280;5371;49.782;9.932;2023-03-04T10:38:57;100246.03;;;3.94;99.39
10646;BME280;5371;49.782;9.932;2023-03-04T10:41:26;100241.66;;;3.98;98.34
10646;BME280;5371;49.782;9.932;2023-03-04T10:44:00;100240.31;;;3.42;100.00
10646;BME280;5371;49.782;9.932;2023-03-04T10:46:27;100242.06;;;3.39;100.00
10646;BME280;5371;49.782;9.932;2023-03-04T10:48:55;100240.59;;;3.68;100.00
10646;BME280;5371;49.782;9.932;2023-03-04T10:51:23;100242.78;;;3.86;100.00
10646;BME280;5371;49.782;9.932;2023-03-04T10:53:55;100245.56;;;2.92;100.00
10646;BME280;5371;49.782;9.932;2023-03-04T10:56:38;100239.47;;;3.80;100.00
10646;BME280;5371;49.782;9.932;2023-03-04T10:59:29;100241.06;;;3.85;98.86
10646;BME280;5371;49.782;9.932;2023-03-04T11:01:57;100238.00;;;3.68;99.91
10646;BME280;5371;49.782;9.932;2023-03-04T11:04:25;100234.91;;;4.28;96.00
10646;BME280;5371;49.782;9.932;2023-03-04T11:06:53;100230.63;;;4.61;93.31
10646;BME280;5371;49.782;9.932;2023-03-04T11:09:22;100224.50;;;4.63;92.79
10646;BME280;5371;49.782;9.932;2023-03-04T11:11:51;100225.28;;;4.65;91.68
10646;BME280;5371;49.782;9.932;2023-03-04T11:14:22;100229.28;;;4.46;93.38
10646;BME280;5371;49.782;9.932;2023-03-04T11:16:54;100222.06;;;4.57;92.56
10646;BME280;5371;49.782;9.932;2023-03-04T11:19:24;100212.44;;;4.62;92.55
10646;BME280;5371;49.782;9.932;2023-03-04T11:21:54;100218.91;;;4.78;90.64
10646;BME280;5371;49.782;9.932;2023-03-04T11:24:24;100208.91;;;4.65;91.20
10646;BME280;5371;49.782;9.932;2023-03-04T11:26:59;100213.28;;;4.64;91.55
10646;BME280;5371;49.782;9.932;2023-03-04T11:29:31;100213.13;;;4.69;90.65
10646;BME280;5371;49.782;9.932;2023-03-04T11:32:04;100209.19;;;4.86;90.11
10646;BME280;5371;49.782;9.932;2023-03-04T11:34:39;100211.88;;;4.83;91.25
10646;BME280;5371;49.782;9.932;2023-03-04T11:37:12;100204.03;;;4.86;89.66
10646;BME280;5371;49.782;9.932;2023-03-04T11:39:45;100200.22;;;4.67;90.65
10646;BME280;5371;49.782;9.932;2023-03-04T11:42:20;100196.34;;;4.17;95.39
10646;BME280;5371;49.782;9.932;2023-03-04T11:44:49;100201.75;;;4.42;93.27
10646;BME280;5371;49.782;9.932;2023-03-04T11:47:35;100202.59;;;4.42;92.88
10646;BME280;5371;49.782;9.932;2023-03-04T11:50:22;100199.16;;;4.74;90.77
10646;BME280;5371;49.782;9.932;2023-03-04T11:53:25;100204.03;;;4.54;91.33
10646;BME280;5371;49.782;9.932;2023-03-04T11:56:03;100195.91;;;4.68;90.55
10646;BME280;5371;49.782;9.932;2023-03-04T11:58:49;100194.97;;;4.70;89.88
10646;BME280;5371;49.782;9.932;2023-03-04T12:01:24;100188.78;;;4.76;90.21
10646;BME280;5371;49.782;9.932;2023-03-04T12:04:06;100187.94;;;4.74;90.26
10646;BME280;5371;49.782;9.932;2023-03-04T12:06:47;100183.03;;;4.96;89.21
10646;BME280;5371;49.782;9.932;2023-03-04T12:09:23;100172.22;;;4.49;90.82
10646;BME280;5371;49.782;9.932;2023-03-04T12:12:04;100174.38;;;4.66;91.34
10646;BME280;5371;49.782;9.932;2023-03-04T12:14:41;100168.00;;;4.77;90.58
10646;BME280;5371;49.782;9.932;2023-03-04T12:17:29;100164.41;;;4.52;91.16
10646;BME280;5371;49.782;9.932;2023-03-04T12:22:54;100167.13;;;4.78;91.84
10646;BME280;5371;49.782;9.932;2023-03-04T12:25:36;100153.59;;;5.00;89.19
10646;BME280;5371;49.782;9.932;2023-03-04T12:28:29;100153.59;;;5.00;89.59
10646;BME280;5371;49.782;9.932;2023-03-04T12:33:57;100150.44;;;4.88;90.28
10646;BME280;5371;49.782;9.932;2023-03-04T12:36:31;100151.25;;;4.91;90.53
10646;BME280;5371;49.782;9.932;2023-03-04T12:39:07;100149.88;;;4.77;91.69
10646;BME280;5371;49.782;9.932;2023-03-04T12:41:44;100142.75;;;4.85;90.80
10646;BME280;5371;49.782;9.932;2023-03-04T12:44:16;100149.44;;;4.93;90.79
10646;BME280;5371;49.782;9.932;2023-03-04T12:47:04;100143.94;;;5.05;89.58
10646;BME280;5371;49.782;9.932;2023-03-04T12:49:54;100142.75;;;4.85;92.88
10646;BME280;5371;49.782;9.932;2023-03-04T12:52:32;100139.91;;;4.95;91.02
10646;BME280;5371;49.782;9.932;2023-03-04T12:55:07;100133.97;;;4.91;91.21
10646;BME280;5371;49.782;9.932;2023-03-04T12:57:36;100135.13;;;4.81;92.10
10646;BME280;5371;49.782;9.932;2023-03-04T13:00:15;100126.25;;;4.89;91.49
10646;BME280;5371;49.782;9.932;2023-03-04T13:03:06;100129.66;;;5.19;90.55
10646;BME280;5371;49.782;9.932;2023-03-04T13:05:47;100130.72;;;4.83;93.50
10646;BME280;5371;49.782;9.932;2023-03-04T13:08:25;100125.16;;;4.97;91.74
10646;BME280;5371;49.782;9.932;2023-03-04T13:11:00;100126.94;;;5.24;90.71
10646;BME280;5371;49.782;9.932;2023-03-04T13:13:37;100125.16;;;5.26;90.64
10646;BME280;5371;49.782;9.932;2023-03-04T13:16:06;100124.47;;;4.92;91.88
10646;BME280;5371;49.782;9.932;2023-03-04T13:18:54;100128.28;;;4.78;93.49
10646;BME280;5371;49.782;9.932;2023-03-04T13:21:23;100114.09;;;4.61;95.63
10646;BME280;5371;49.782;9.932;2023-03-04T13:23:51;100115.50;;;5.02;91.58